createdAt,value
2018-03-30T00:02:21.574Z,23.77
2018-03-30T00:07:22.924Z,23.20
2018-03-30T00:12:24.289Z,24.23
2018-03-30T00:17:25.659Z,23.50
2018-03-30T00:22:27.760Z,24.10
2018-03-30T00:27:29.886Z,22.77
2018-03-30T00:32:31.338Z,25.33
2018-03-30T00:37:32.791Z,25.30
2018-03-30T00:42:34.159Z,23.00
2018-03-30T00:47:35.562Z,23.00
2018-03-30T00:52:36.908Z,21.33
2018-03-30T00:57:38.822Z,22.50
2018-03-30T01:02:40.956Z,23.93
2018-03-30T01:07:42.303Z,24.40
2018-03-30T01:12:43.673Z,24.63
2018-03-30T01:17:45.047Z,22.43
2018-03-30T01:22:46.410Z,24.57
2018-03-30T01:27:47.798Z,24.60
2018-03-30T01:32:49.868Z,26.07
2018-03-30T01:37:51.227Z,26.53
2018-03-30T01:42:52.569Z,25.90
2018-03-30T01:47:54.651Z,23.93
2018-03-30T01:52:55.990Z,26.17
2018-03-30T01:57:57.330Z,24.50
2018-03-30T02:02:58.682Z,23.47
2018-03-30T02:08:00.070Z,22.97
2018-03-30T02:13:01.498Z,22.60
2018-03-30T02:18:02.892Z,24.60
2018-03-30T02:23:04.245Z,23.67
2018-03-30T02:28:05.744Z,24.67
2018-03-30T02:33:07.085Z,24.10
2018-03-30T02:38:08.492Z,26.27
2018-03-30T02:43:09.897Z,23.33
2018-03-30T02:48:11.229Z,25.00
2018-03-30T02:53:12.630Z,22.83
2018-03-30T02:58:13.996Z,24.10
2018-03-30T03:03:15.368Z,24.10
2018-03-30T03:08:16.714Z,24.07
2018-03-30T03:13:18.066Z,22.50
2018-03-30T03:18:19.443Z,21.97
2018-03-30T03:23:20.810Z,22.53
2018-03-30T03:28:22.171Z,22.50
2018-03-30T03:33:23.505Z,21.17
2018-03-30T03:38:24.850Z,22.13
2018-03-30T03:43:26.409Z,19.93
2018-03-30T03:48:27.759Z,19.67
2018-03-30T03:53:29.829Z,19.30
2018-03-30T03:58:31.223Z,19.20
2018-03-30T04:03:32.596Z,20.20
2018-03-30T04:08:34.052Z,21.57
2018-03-30T04:13:35.444Z,19.87
2018-03-30T04:18:36.788Z,20.10
2018-03-30T04:23:38.166Z,20.27
2018-03-30T04:28:39.577Z,18.80
2018-03-30T04:33:41.752Z,20.07
2018-03-30T04:38:44.010Z,19.10
2018-03-30T04:43:46.548Z,19.17
2018-03-30T04:48:48.193Z,18.40
2018-03-30T04:53:50.424Z,19.40
2018-03-30T04:58:52.260Z,19.00
2018-03-30T05:03:53.833Z,18.47
2018-03-30T05:08:56.340Z,19.10
2018-03-30T05:13:57.670Z,17.30
2018-03-30T05:18:59.878Z,18.90
2018-03-30T05:24:01.313Z,17.57
2018-03-30T05:29:02.843Z,18.43
2018-03-30T05:34:04.360Z,20.43
2018-03-30T05:39:05.810Z,18.53
2018-03-30T05:44:07.218Z,18.40
2018-03-30T05:49:09.353Z,21.13
2018-03-30T05:54:10.816Z,18.33
2018-03-30T05:59:13.768Z,17.63
2018-03-30T06:04:15.662Z,17.87
2018-03-30T06:09:17.469Z,18.00
2018-03-30T06:14:20.054Z,16.33
2018-03-30T06:19:22.362Z,17.03
2018-03-30T06:24:24.605Z,16.10
2018-03-30T06:29:26.596Z,15.93
2018-03-30T06:34:28.781Z,16.00
2018-03-30T06:39:31.015Z,14.77
2018-03-30T06:44:34.931Z,16.00
2018-03-30T06:49:37.165Z,14.80
2018-03-30T06:54:38.585Z,15.40
2018-03-30T06:59:39.961Z,14.43
2018-03-30T07:04:42.495Z,14.90
2018-03-30T07:09:43.936Z,14.50
2018-03-30T07:14:46.298Z,16.07
2018-03-30T07:19:48.377Z,16.40
2018-03-30T07:24:51.286Z,15.07
2018-03-30T07:29:53.946Z,15.83
2018-03-30T07:34:56.346Z,15.27
2018-03-30T07:39:58.638Z,15.03
2018-03-30T07:45:01.614Z,15.60
2018-03-30T07:50:03.620Z,14.90
2018-03-30T07:55:05.061Z,15.90
2018-03-30T08:00:07.947Z,15.13
2018-03-30T08:05:10.088Z,16.83
2018-03-30T08:10:11.439Z,16.03
2018-03-30T08:15:12.840Z,14.53
2018-03-30T08:20:14.192Z,15.70
2018-03-30T08:25:16.287Z,15.10
2018-03-30T08:30:17.635Z,15.90
2018-03-30T08:35:19.005Z,15.10
2018-03-30T08:40:20.389Z,14.63
2018-03-30T08:45:21.724Z,14.57
2018-03-30T08:50:23.077Z,15.80
2018-03-30T08:55:24.488Z,15.40
2018-03-30T09:00:25.892Z,15.33
2018-03-30T09:05:27.604Z,14.13
2018-03-30T09:10:30.680Z,14.90
2018-03-30T09:15:32.909Z,15.27
2018-03-30T09:20:35.416Z,14.77
2018-03-30T09:25:37.315Z,14.60
2018-03-30T09:30:39.781Z,14.20
2018-03-30T09:35:42.192Z,14.60
2018-03-30T09:40:44.550Z,14.47
2018-03-30T09:45:45.992Z,13.40
2018-03-30T09:50:47.311Z,13.97
2018-03-30T09:55:49.433Z,13.30
2018-03-30T10:00:50.789Z,14.50
2018-03-30T10:05:52.135Z,14.60
2018-03-30T10:10:53.522Z,13.80
2018-03-30T10:15:54.949Z,13.80
2018-03-30T10:20:56.335Z,14.30
2018-03-30T10:25:57.696Z,13.60
2018-03-30T10:30:59.485Z,14.20
2018-03-30T10:36:02.433Z,13.13
2018-03-30T10:41:03.919Z,13.57
2018-03-30T10:46:05.239Z,13.00
2018-03-30T10:51:06.602Z,12.10
2018-03-30T10:56:07.964Z,12.40
2018-03-30T11:01:10.076Z,12.60
2018-03-30T11:06:11.474Z,10.50
2018-03-30T11:11:12.876Z,11.03
2018-03-30T11:16:14.242Z,10.90
2018-03-30T11:21:15.669Z,10.10
2018-03-30T11:26:17.056Z,11.13
2018-03-30T11:31:18.490Z,10.77
2018-03-30T11:36:19.832Z,11.27
2018-03-30T11:41:23.356Z,10.40
2018-03-30T11:46:26.497Z,11.37
2018-03-30T11:51:27.918Z,9.70
2018-03-30T11:56:29.280Z,9.80
2018-03-30T12:01:30.637Z,10.40
2018-03-30T12:06:31.960Z,10.20
2018-03-30T12:11:33.320Z,9.90
2018-03-30T12:16:35.384Z,8.03
2018-03-30T12:21:36.759Z,9.40
2018-03-30T12:26:38.136Z,8.97
2018-03-30T12:31:39.518Z,9.20
2018-03-30T12:36:40.875Z,9.30
2018-03-30T12:41:42.236Z,9.73
2018-03-30T12:46:43.599Z,9.63
2018-03-30T12:51:45.072Z,10.03
2018-03-30T12:56:47.159Z,8.27
2018-03-30T13:01:48.516Z,8.30
2018-03-30T13:06:49.835Z,9.27
2018-03-30T13:11:51.153Z,8.77
2018-03-30T13:16:53.225Z,9.23
2018-03-30T13:21:54.535Z,8.00
2018-03-30T13:26:56.699Z,8.07
2018-03-30T13:31:58.332Z,8.40
2018-03-30T13:37:00.601Z,9.40
2018-03-30T13:42:02.144Z,8.50
2018-03-30T13:47:04.342Z,8.83
2018-03-30T13:52:11.584Z,8.40
2018-03-30T13:57:39.314Z,9.20
2018-03-30T14:02:46.285Z,8.60
2018-03-30T14:13:25.881Z,8.80
2018-03-30T14:18:35.765Z,9.40
2018-03-30T14:23:43.531Z,9.53
2018-03-30T14:29:06.746Z,8.70
2018-03-30T14:34:21.893Z,9.10
2018-03-30T14:39:47.796Z,8.87
2018-03-30T14:44:51.141Z,9.90
2018-03-30T14:49:57.248Z,10.57
2018-03-30T14:55:01.395Z,10.60
2018-03-30T15:00:09.893Z,11.37
2018-03-30T15:05:37.138Z,12.07
2018-03-30T15:11:26.794Z,12.50
2018-03-30T15:16:55.768Z,12.00
2018-03-30T15:22:10.136Z,13.00
2018-03-30T15:32:48.798Z,12.33
2018-03-30T15:37:50.995Z,13.97
2018-03-30T15:42:59.133Z,11.60
2018-03-30T15:48:00.533Z,11.50
2018-03-30T15:53:01.912Z,11.93
2018-03-30T15:58:03.316Z,11.37
2018-03-30T16:03:04.697Z,11.60
2018-03-30T16:08:06.070Z,11.90
2018-03-30T16:13:07.454Z,11.77
2018-03-30T16:18:08.832Z,12.60
2018-03-30T16:23:09.920Z,11.27
2018-03-30T16:28:11.180Z,11.57
2018-03-30T16:33:12.984Z,12.57
2018-03-30T16:38:14.801Z,13.30
2018-03-30T16:43:15.961Z,17.30
2018-03-30T16:48:17.819Z,17.50
2018-03-30T16:53:18.905Z,15.90
2018-03-30T16:58:20.019Z,56.73
2018-03-30T17:03:21.204Z,22.27
2018-03-30T17:08:22.529Z,16.37
2018-03-30T17:13:23.675Z,30.40
2018-03-30T17:18:24.775Z,24.03
2018-03-30T17:23:26.617Z,40.57
2018-03-30T17:28:27.720Z,34.70
2018-03-30T17:33:28.868Z,16.10
2018-03-30T17:38:29.960Z,35.20
2018-03-30T17:43:31.124Z,17.57
2018-03-30T17:48:32.242Z,19.97
2018-03-30T17:53:33.364Z,17.77
2018-03-30T17:58:34.454Z,18.40
2018-03-30T18:03:35.532Z,14.70
2018-03-30T18:08:36.616Z,15.37
2018-03-30T18:13:37.712Z,14.87
2018-03-30T18:18:38.798Z,13.93
2018-03-30T18:23:41.025Z,13.87
2018-03-30T18:28:42.238Z,14.10
2018-03-30T18:33:44.011Z,14.00
2018-03-30T18:38:46.472Z,13.30
2018-03-30T18:43:47.965Z,15.33
2018-03-30T18:48:49.121Z,14.37
2018-03-30T18:53:50.446Z,13.93
2018-03-30T18:58:51.726Z,14.93
2018-03-30T19:03:52.852Z,14.30
2018-03-30T19:08:54.751Z,14.60
2018-03-30T19:13:57.334Z,13.57
2018-03-30T19:18:58.515Z,13.87
2018-03-30T19:23:59.615Z,14.67
2018-03-30T19:29:00.721Z,13.93
2018-03-30T19:34:01.842Z,13.60
2018-03-30T19:39:02.924Z,14.80
2018-03-30T19:44:04.026Z,14.40
2018-03-30T19:49:05.130Z,15.33
2018-03-30T19:54:06.275Z,16.07
2018-03-30T19:59:07.392Z,14.80
2018-03-30T20:04:08.500Z,14.37
2018-03-30T20:09:09.593Z,14.80
2018-03-30T20:14:10.661Z,16.40
2018-03-30T20:19:11.857Z,15.90
2018-03-30T20:24:12.955Z,15.70
2018-03-30T20:29:14.812Z,14.77
2018-03-30T20:34:15.891Z,16.80
2018-03-30T20:39:16.987Z,16.47
2018-03-30T20:44:18.096Z,15.20
2018-03-30T20:49:19.183Z,16.13
2018-03-30T20:54:21.239Z,16.07
2018-03-30T20:59:22.342Z,17.27
2018-03-30T21:04:23.448Z,15.10
2018-03-30T21:09:24.583Z,15.87
2018-03-30T21:14:25.658Z,15.37
2018-03-30T21:19:26.797Z,15.13
2018-03-30T21:24:27.949Z,16.40
2018-03-30T21:29:29.003Z,15.40
2018-03-30T21:34:30.087Z,14.90
2018-03-30T21:39:31.197Z,15.07
2018-03-30T21:44:32.277Z,14.37
2018-03-30T21:49:33.871Z,13.80
2018-03-30T21:54:35.010Z,14.17
2018-03-30T21:59:36.836Z,14.27
2018-03-30T22:04:38.876Z,14.40
2018-03-30T22:09:39.962Z,14.43
2018-03-30T22:14:41.094Z,13.80
2018-03-30T22:19:42.189Z,14.10
2018-03-30T22:24:44.106Z,15.10
2018-03-30T22:29:45.233Z,14.50
2018-03-30T22:34:46.340Z,12.70
2018-03-30T22:39:47.430Z,12.97
2018-03-30T22:44:48.511Z,13.37
2018-03-30T22:49:50.350Z,12.77
2018-03-30T22:54:51.460Z,13.43
2018-03-30T22:59:52.543Z,14.33
2018-03-30T23:04:53.629Z,13.13
2018-03-30T23:09:54.709Z,13.23
2018-03-30T23:14:55.842Z,13.57
2018-03-30T23:19:57.664Z,12.80
2018-03-30T23:24:58.756Z,13.23
2018-03-30T23:29:59.903Z,12.50
2018-03-30T23:35:01.000Z,12.20
2018-03-30T23:40:02.828Z,12.40
2018-03-30T23:45:03.929Z,11.37
2018-03-30T23:50:05.028Z,12.27
2018-03-30T23:55:06.122Z,11.60
